Time;durP1;ratioP1;P1;durP2;ratioP2;P2;SDS_P1;SDS_P2;PMS_P1;PMS_P2;Temp;Humidity;BMP_temperature;BMP_pressure;BME280_temperature;BME280_humidity;BME280_pressure;Samples;Min_cycle;Max_cycle;Signal;HPM_P1;HPM_P2
2023/03/12 00:01:18;;;;;;;17.20;9.10;;;;;;;-0.63;80.24;99222.39;131410;1253;108682;-77
2023/03/12 00:04:23;;;;;;;14.20;8.40;;;;;;;-0.67;80.50;99227.28;131459;1263;107551;-77
2023/03/12 00:07:29;;;;;;;16.30;7.90;;;;;;;-0.67;80.43;99223.41;131181;1253;106557;-76
2023/03/12 00:10:35;;;;;;;15.00;8.90;;;;;;;-0.59;80.57;99222.34;131271;1253;107488;-76
2023/03/12 00:13:42;;;;;;;12.60;7.80;;;;;;;-0.52;80.48;99213.99;131100;1247;107528;-77
2023/03/12 00:16:48;;;;;;;15.20;8.60;;;;;;;-0.49;80.34;99213.56;131079;1253;107533;-77
2023/03/12 00:19:54;;;;;;;14.20;7.60;;;;;;;-0.50;80.10;99214.34;131393;1254;107521;-77
2023/03/12 00:23:00;;;;;;;12.60;7.80;;;;;;;-0.49;80.29;99210.80;131421;1248;107460;-77
2023/03/12 00:26:08;;;;;;;15.30;8.10;;;;;;;-0.47;80.17;99209.81;131461;1271;107651;-76
2023/03/12 00:29:14;;;;;;;14.20;7.80;;;;;;;-0.48;80.19;99207.42;131429;1265;107503;-76
2023/03/12 00:32:20;;;;;;;11.60;7.20;;;;;;;-0.49;80.10;99207.98;131425;1253;107555;-77
2023/03/12 00:35:25;;;;;;;13.00;7.80;;;;;;;-0.52;80.18;99209.59;131201;1265;107541;-76
2023/03/12 00:38:31;;;;;;;12.30;7.40;;;;;;;-0.55;80.00;99205.95;131390;1253;105744;-75
2023/03/12 00:41:37;;;;;;;16.20;8.00;;;;;;;-0.61;80.06;99204.98;131413;1248;107624;-77
2023/03/12 00:44:43;;;;;;;12.50;7.00;;;;;;;-0.62;80.07;99204.91;131265;1254;107368;-77
2023/03/12 00:47:49;;;;;;;12.60;7.10;;;;;;;-0.62;80.16;99205.23;131472;1253;107437;-77
2023/03/12 00:50:54;;;;;;;18.30;8.40;;;;;;;-0.57;80.10;99200.36;131517;1263;107501;-77
2023/03/12 00:54:00;;;;;;;10.60;6.20;;;;;;;-0.48;80.15;99201.44;131408;1253;107478;-77
2023/03/12 00:57:07;;;;;;;12.60;6.70;;;;;;;-0.37;79.88;99200.16;131476;1257;107405;-76
2023/03/12 01:00:14;;;;;;;11.60;5.90;;;;;;;-0.27;79.97;99197.69;131329;1253;107450;-76
2023/03/12 01:03:20;;;;;;;11.10;6.70;;;;;;;-0.22;79.76;99193.17;131421;1248;107588;-77
2023/03/12 01:06:26;;;;;;;13.60;7.00;;;;;;;-0.15;79.76;99194.37;131354;1254;107556;-77
2023/03/12 01:09:31;;;;;;;12.10;7.40;;;;;;;-0.13;79.62;99187.80;131393;1253;107553;-76
2023/03/12 01:12:37;;;;;;;12.30;7.30;;;;;;;-0.10;79.58;99183.73;131395;1248;107504;-76
2023/03/12 01:15:42;;;;;;;12.70;7.10;;;;;;;-0.07;79.64;99187.52;131394;1254;107565;-76
2023/03/12 01:18:48;;;;;;;15.90;7.10;;;;;;;-0.03;79.63;99187.05;131394;1253;107532;-76
2023/03/12 01:21:54;;;;;;;13.40;6.30;;;;;;;-0.04;79.41;99186.06;131362;1254;107432;-77
2023/03/12 01:24:59;;;;;;;14.80;7.10;;;;;;;-0.02;79.61;99186.98;131373;1262;105938;-77
2023/03/12 01:28:06;;;;;;;13.90;7.00;;;;;;;0.01;79.74;99180.98;131379;1252;107445;-76
2023/03/12 01:31:13;;;;;;;13.00;5.90;;;;;;;0.07;79.55;99175.52;131383;1248;107445;-76
2023/03/12 01:34:19;;;;;;;11.80;6.20;;;;;;;0.16;79.58;99173.05;131217;1248;106387;-76
2023/03/12 01:37:25;;;;;;;12.10;6.20;;;;;;;0.26;79.56;99171.41;131196;1253;107534;-77
2023/03/12 01:40:33;;;;;;;9.40;5.30;;;;;;;0.35;79.70;99171.09;131152;1248;108566;-76
2023/03/12 01:43:39;;;;;;;9.20;5.70;;;;;;;0.43;79.52;99167.41;131276;1259;107546;-76
2023/03/12 01:46:46;;;;;;;8.60;5.20;;;;;;;0.48;79.36;99157.93;131334;1248;107429;-76
2023/03/12 01:49:59;;;;;;;11.00;6.10;;;;;;;0.51;79.41;99158.70;131232;1252;107496;-77
2023/03/12 01:53:05;;;;;;;10.30;5.80;;;;;;;0.53;79.18;99162.09;131249;1263;107234;-76
2023/03/12 01:56:13;;;;;;;9.00;5.90;;;;;;;0.51;79.04;99168.53;131316;1248;107268;-77
2023/03/12 01:59:23;;;;;;;9.80;5.70;;;;;;;0.49;79.02;99167.66;131230;1248;107339;-77
2023/03/12 02:02:30;;;;;;;10.10;5.80;;;;;;;0.46;79.15;99172.39;131274;1253;107508;-76
2023/03/12 02:05:43;;;;;;;11.50;6.70;;;;;;;0.44;79.00;99174.85;131281;1254;107561;-77
2023/03/12 02:08:50;;;;;;;12.00;6.60;;;;;;;0.44;79.06;99176.41;131468;1253;107644;-75
2023/03/12 02:11:56;;;;;;;13.00;6.50;;;;;;;0.43;79.10;99175.23;131234;1252;107547;-76
2023/03/12 02:15:02;;;;;;;10.10;5.60;;;;;;;0.47;78.89;99177.41;131074;1248;222705;-76
2023/03/12 02:18:11;;;;;;;8.80;5.30;;;;;;;0.54;79.11;99183.34;131443;1248;107595;-77
2023/03/12 02:21:20;;;;;;;11.70;5.80;;;;;;;0.64;78.99;99184.88;131405;1253;107529;-79
2023/03/12 02:24:33;;;;;;;10.40;6.00;;;;;;;0.69;78.51;99190.30;131260;1254;105900;-78
2023/03/12 02:27:39;;;;;;;11.30;6.10;;;;;;;0.67;78.65;99192.55;131321;1254;107513;-76
2023/03/12 02:30:48;;;;;;;10.00;5.80;;;;;;;0.67;78.71;99192.73;131320;1253;107524;-78
2023/03/12 02:33:55;;;;;;;10.60;5.70;;;;;;;0.67;78.69;99192.52;131365;1252;107426;-76
2023/03/12 02:37:00;;;;;;;8.70;5.40;;;;;;;0.66;78.88;99195.27;131392;1248;105780;-76
2023/03/12 02:40:13;;;;;;;9.30;5.50;;;;;;;0.64;78.66;99196.40;131185;1248;107470;-77
2023/03/12 02:43:21;;;;;;;9.60;5.80;;;;;;;0.55;78.55;99196.22;131162;1271;107714;-77
2023/03/12 02:46:30;;;;;;;10.40;5.50;;;;;;;0.48;78.72;99198.70;131280;1248;107563;-77
2023/03/12 02:49:36;;;;;;;9.90;5.90;;;;;;;0.38;78.39;99200.80;131118;1263;107508;-76
2023/03/12 02:52:42;;;;;;;13.60;6.60;;;;;;;0.32;78.58;99204.58;131081;1247;107261;-77
2023/03/12 02:55:48;;;;;;;13.20;6.20;;;;;;;0.27;78.64;99201.12;131113;1253;107515;-77
2023/03/12 02:58:54;;;;;;;9.50;5.60;;;;;;;0.29;78.85;99206.06;131366;1248;107493;-77
2023/03/12 03:02:01;;;;;;;10.20;6.10;;;;;;;0.35;78.76;99204.50;131217;1247;107468;-77
2023/03/12 03:05:09;;;;;;;11.10;6.00;;;;;;;0.44;78.69;99208.81;131116;1253;107416;-77
2023/03/12 03:08:15;;;;;;;11.90;6.20;;;;;;;0.50;78.77;99206.79;131137;1248;107441;-77
2023/03/12 03:11:23;;;;;;;12.80;6.40;;;;;;;0.53;78.54;99211.80;131123;1248;107351;-76
2023/03/12 03:14:29;;;;;;;10.40;6.30;;;;;;;0.54;78.55;99216.92;131399;1250;107340;-76
2023/03/12 03:17:35;;;;;;;11.30;6.70;;;;;;;0.52;78.56;99216.91;131297;1253;107567;-77
2023/03/12 03:20:42;;;;;;;11.30;5.80;;;;;;;0.48;78.34;99221.40;131131;1248;106734;-76
2023/03/12 03:23:49;;;;;;;10.20;6.40;;;;;;;0.45;78.77;99222.35;131254;1253;107581;-78
2023/03/12 03:26:55;;;;;;;11.50;7.00;;;;;;;0.44;78.55;99222.77;131166;1254;107676;-76
2023/03/12 03:30:01;;;;;;;12.70;6.40;;;;;;;0.42;78.72;99225.77;131143;1259;107506;-77
2023/03/12 03:33:08;;;;;;;8.60;5.30;;;;;;;0.45;78.98;99234.05;131214;1254;107456;-76
2023/03/12 03:36:14;;;;;;;9.50;5.70;;;;;;;0.53;78.95;99235.25;131296;1248;107499;-77
2023/03/12 03:39:27;;;;;;;11.40;6.30;;;;;;;0.57;78.70;99239.96;131403;1248;107373;-76
2023/03/12 03:42:33;;;;;;;7.90;5.80;;;;;;;0.60;78.49;99241.55;131422;1248;108546;-77
2023/03/12 03:45:40;;;;;;;9.90;6.00;;;;;;;0.57;78.67;99243.70;131307;1250;107359;-77
2023/03/12 03:48:45;;;;;;;8.50;5.50;;;;;;;0.61;78.75;99242.02;131147;1248;107397;-77
2023/03/12 03:51:52;;;;;;;9.60;5.40;;;;;;;0.60;78.56;99237.16;131137;1248;107402;-77
2023/03/12 03:55:03;;;;;;;8.40;5.10;;;;;;;0.60;78.44;99233.65;131115;1248;107485;-77
2023/03/12 03:58:10;;;;;;;9.00;5.30;;;;;;;0.56;78.57;99231.14;131142;1257;107415;-77
2023/03/12 04:01:16;;;;;;;11.10;5.80;;;;;;;0.55;78.61;99230.39;131195;1253;107352;-77
2023/03/12 04:04:22;;;;;;;8.60;5.60;;;;;;;0.55;78.90;99225.27;131381;1250;107497;-77
2023/03/12 04:07:29;;;;;;;8.30;4.80;;;;;;;0.63;78.90;99229.08;131132;1249;107469;-77
2023/03/12 04:10:35;;;;;;;11.10;5.50;;;;;;;0.71;78.87;99236.33;131109;1250;107403;-77
2023/03/12 04:13:41;;;;;;;7.90;4.90;;;;;;;0.73;78.64;99237.61;131084;1254;107431;-77
2023/03/12 04:16:47;;;;;;;7.90;4.90;;;;;;;0.77;78.59;99233.39;131235;1253;108568;-76
2023/03/12 04:19:53;;;;;;;8.70;5.00;;;;;;;0.81;78.49;99233.30;131329;1252;107505;-77
2023/03/12 04:23:00;;;;;;;8.90;5.40;;;;;;;0.81;78.57;99234.38;131314;1260;107362;-77
2023/03/12 04:26:07;;;;;;;8.20;5.20;;;;;;;0.82;78.56;99237.79;131382;1252;107491;-77
2023/03/12 04:29:13;;;;;;;7.30;5.00;;;;;;;0.83;78.51;99241.05;131401;1248;107408;-76
2023/03/12 04:32:19;;;;;;;9.00;5.20;;;;;;;0.79;78.28;99244.84;131453;1257;107525;-76
2023/03/12 04:35:25;;;;;;;8.20;4.70;;;;;;;0.75;78.61;99246.88;131266;1248;107487;-77
2023/03/12 04:38:31;;;;;;;10.00;4.60;;;;;;;0.76;78.69;99246.61;131177;1251;107406;-76
2023/03/12 04:41:38;;;;;;;9.00;5.00;;;;;;;0.77;78.60;99248.98;131183;1251;108634;-77
2023/03/12 04:44:51;;;;;;;;;;;;;;;0.82;78.56;99249.17;131162;1248;107524;-77
2023/03/12 04:47:57;;;;;;;8.80;4.80;;;;;;;0.84;78.30;99253.07;131238;1248;107585;-77
2023/03/12 04:51:04;;;;;;;7.20;4.40;;;;;;;0.89;78.58;99258.10;131552;1255;107396;-77
2023/03/12 04:54:10;;;;;;;7.10;4.10;;;;;;;0.95;78.43;99259.92;131246;1254;107644;-77
2023/03/12 04:57:16;;;;;;;8.10;4.80;;;;;;;1.00;78.18;99268.84;131320;1253;107531;-77
2023/03/12 05:00:22;;;;;;;12.10;5.90;;;;;;;0.97;78.29;99277.82;131720;1247;107443;-75
2023/03/12 05:03:28;;;;;;;8.30;4.90;;;;;;;0.94;78.39;99272.39;131363;1247;107365;-75
2023/03/12 05:06:37;;;;;;;8.70;5.00;;;;;;;0.96;78.43;99276.46;131548;1251;106408;-77
2023/03/12 05:09:45;;;;;;;8.30;5.10;;;;;;;0.95;78.10;99277.23;131319;1251;107408;-78
2023/03/12 05:12:51;;;;;;;9.10;4.90;;;;;;;0.89;78.34;99272.98;131353;1247;107353;-76
2023/03/12 05:15:57;;;;;;;11.10;6.50;;;;;;;0.85;78.26;99276.24;131431;1251;107430;-78
2023/03/12 05:19:04;;;;;;;9.00;5.30;;;;;;;0.80;78.40;99284.86;131609;1247;107492;-77
2023/03/12 05:22:10;;;;;;;42.00;22.20;;;;;;;0.81;78.24;99289.54;131280;1247;107443;-76
2023/03/12 05:25:16;;;;;;;96.70;28.50;;;;;;;0.85;78.35;99291.48;131390;1247;107483;-77
2023/03/12 05:28:26;;;;;;;65.00;23.20;;;;;;;0.93;78.23;99298.41;131421;1251;107352;-77
2023/03/12 05:31:34;;;;;;;136.80;39.70;;;;;;;0.98;78.35;99296.29;131485;1247;108639;-78
2023/03/12 05:34:40;;;;;;;17.80;7.60;;;;;;;1.04;78.09;99299.33;131415;1247;107518;-76
2023/03/12 05:37:46;;;;;;;43.60;14.40;;;;;;;0.99;77.85;99301.13;131343;1248;107461;-78
2023/03/12 05:40:58;;;;;;;17.10;8.60;;;;;;;0.98;78.10;99304.34;131148;1250;107469;-77
2023/03/12 05:44:04;;;;;;;66.50;18.90;;;;;;;0.95;77.84;99315.46;131118;1247;107419;-77
2023/03/12 05:47:10;;;;;;;21.50;9.50;;;;;;;0.92;78.10;99312.33;131123;1248;106465;-76
2023/03/12 05:50:17;;;;;;;21.50;12.00;;;;;;;0.94;78.14;99320.96;131330;1252;107372;-77
2023/03/12 05:53:23;;;;;;;13.70;8.10;;;;;;;0.93;78.07;99329.27;131352;1263;107562;-76
2023/03/12 05:56:29;;;;;;;23.80;10.80;;;;;;;0.96;78.12;99331.13;131263;1248;107424;-77
2023/03/12 05:59:35;;;;;;;22.80;10.60;;;;;;;1.00;77.95;99327.64;131315;1248;106420;-76
2023/03/12 06:02:41;;;;;;;62.80;35.20;;;;;;;1.10;77.99;99329.86;131325;1247;107440;-76
2023/03/12 06:05:53;;;;;;;19.80;11.40;;;;;;;1.18;77.50;99328.95;131138;1248;105717;-76
2023/03/12 06:09:00;;;;;;;18.10;9.20;;;;;;;1.18;77.62;99333.29;131202;1248;107495;-77
2023/03/12 06:12:07;;;;;;;93.50;39.40;;;;;;;1.23;77.63;99333.98;131276;1252;107096;-76
2023/03/12 06:15:13;;;;;;;75.60;24.90;;;;;;;1.28;77.37;99337.17;131402;1247;107514;-76
2023/03/12 06:18:20;;;;;;;68.60;31.10;;;;;;;1.26;77.38;99343.77;131358;1249;107530;-75
2023/03/12 06:21:28;;;;;;;124.60;57.00;;;;;;;1.30;77.48;99351.55;131225;1251;107517;-76
2023/03/12 06:24:34;;;;;;;31.20;16.10;;;;;;;1.29;77.16;99348.80;131198;1253;106620;-79
2023/03/12 06:27:43;;;;;;;192.90;87.00;;;;;;;1.30;77.31;99357.86;131365;1248;107528;-77
2023/03/12 06:30:48;;;;;;;133.70;56.70;;;;;;;1.30;77.23;99360.80;131347;1247;106608;-75
2023/03/12 06:33:54;;;;;;;162.60;69.80;;;;;;;1.37;77.52;99361.34;131290;1252;107479;-77
2023/03/12 06:37:00;;;;;;;54.10;24.20;;;;;;;1.45;77.06;99368.09;131138;1252;106995;-77
2023/03/12 06:40:09;;;;;;;35.90;16.50;;;;;;;1.47;77.09;99365.48;131079;1248;106721;-76
2023/03/12 06:43:15;;;;;;;51.30;20.50;;;;;;;1.53;77.39;99363.80;131134;1252;106321;-76
2023/03/12 06:46:23;;;;;;;174.60;54.40;;;;;;;1.60;76.99;99372.18;131100;1248;107544;-76
2023/03/12 06:49:32;;;;;;;98.00;32.90;;;;;;;1.69;77.15;99374.66;131105;1248;108683;-77
2023/03/12 06:52:39;;;;;;;421.60;149.20;;;;;;;1.71;76.58;99378.88;131364;1250;108648;-75
2023/03/12 06:55:46;;;;;;;67.90;23.20;;;;;;;1.72;76.62;99389.14;131617;1252;107579;-77
2023/03/12 06:58:52;;;;;;;387.20;145.70;;;;;;;1.77;76.60;99383.72;131545;1251;107168;-75
2023/03/12 07:01:58;;;;;;;322.00;110.20;;;;;;;1.83;76.67;99383.25;131427;1251;107183;-75
2023/03/12 07:05:04;;;;;;;120.10;42.20;;;;;;;1.83;77.15;99389.67;131463;1252;108636;-74
2023/03/12 07:08:10;;;;;;;77.60;35.60;;;;;;;1.65;78.21;99396.38;131504;1253;109488;-75
2023/03/12 07:11:17;;;;;;;97.60;38.90;;;;;;;1.41;79.11;99388.38;131472;1248;108215;-76
2023/03/12 07:14:22;;;;;;;102.50;42.40;;;;;;;1.32;79.14;99385.86;131575;1250;108696;-77
2023/03/12 07:17:28;;;;;;;77.60;40.80;;;;;;;1.33;79.05;99395.10;131189;1248;108121;-75
2023/03/12 07:20:36;;;;;;;33.40;18.90;;;;;;;1.43;78.69;99396.64;131227;1271;107120;-75
2023/03/12 07:23:42;;;;;;;35.10;16.10;;;;;;;1.47;78.14;99400.67;131454;1247;108140;-75
2023/03/12 07:26:48;;;;;;;13.00;7.10;;;;;;;1.50;77.80;99409.20;131441;1248;108063;-76
2023/03/12 07:29:54;;;;;;;23.00;12.20;;;;;;;1.48;77.06;99412.36;131174;1249;108088;-75
2023/03/12 07:33:00;;;;;;;66.20;39.10;;;;;;;1.57;77.10;99410.95;131347;1253;108514;-77
2023/03/12 07:36:07;;;;;;;30.90;17.10;;;;;;;1.66;76.86;99406.95;131350;1254;107735;-77
2023/03/12 07:39:13;;;;;;;27.10;13.80;;;;;;;1.81;76.93;99409.48;131126;1248;108593;-77
2023/03/12 07:42:19;;;;;;;22.70;12.70;;;;;;;1.95;76.59;99420.68;131182;1252;107407;-77
2023/03/12 07:45:26;;;;;;;16.60;8.00;;;;;;;1.99;75.96;99429.53;131131;1252;108590;-74
2023/03/12 07:48:32;;;;;;;11.50;5.90;;;;;;;2.04;75.45;99442.63;131268;1248;108281;-75
2023/03/12 07:51:38;;;;;;;11.80;6.50;;;;;;;1.93;76.33;99444.56;131122;1252;108226;-77
2023/03/12 07:54:43;;;;;;;25.90;13.60;;;;;;;1.74;76.71;99441.21;131234;1254;108569;-77
2023/03/12 07:57:49;;;;;;;69.70;32.50;;;;;;;1.67;77.14;99443.05;131379;1252;108642;-77
2023/03/12 08:00:57;;;;;;;22.10;10.70;;;;;;;1.58;77.32;99451.23;131415;1252;107255;-78
2023/03/12 08:04:03;;;;;;;25.20;11.90;;;;;;;1.60;77.11;99460.59;131139;1252;108535;-76
2023/03/12 08:07:09;;;;;;;42.10;18.80;;;;;;;1.57;76.48;99462.84;131086;1271;108548;-77
2023/03/12 08:10:15;;;;;;;39.50;21.20;;;;;;;1.59;77.42;99460.95;131170;1252;108293;-76
2023/03/12 08:13:23;;;;;;;10.20;6.20;;;;;;;1.76;77.01;99469.67;131151;1250;108025;-77
2023/03/12 08:16:29;;;;;;;11.60;5.90;;;;;;;1.90;76.32;99470.04;131146;1253;108476;-77
2023/03/12 08:19:34;;;;;;;8.50;5.30;;;;;;;1.89;74.33;99469.55;131371;1247;106554;-77
2023/03/12 08:22:40;;;;;;;121.60;32.10;;;;;;;1.84;74.78;99459.77;131102;1249;108475;-77
2023/03/12 08:25:48;;;;;;;145.00;38.10;;;;;;;1.91;74.06;99465.37;131075;1250;108489;-77
2023/03/12 08:28:54;;;;;;;151.00;46.40;;;;;;;1.87;74.00;99471.80;131316;1254;107541;-77
2023/03/12 08:32:01;;;;;;;55.20;19.90;;;;;;;1.85;73.52;99478.85;131060;1267;108140;-76
2023/03/12 08:35:08;;;;;;;22.90;10.10;;;;;;;1.94;74.13;99483.08;131172;1251;107343;-76
2023/03/12 08:38:14;;;;;;;20.10;9.50;;;;;;;2.17;73.15;99490.10;131357;1252;108618;-76
2023/03/12 08:41:20;;;;;;;32.70;11.00;;;;;;;2.26;72.59;99493.80;131176;1252;108667;-76
2023/03/12 08:44:26;;;;;;;55.20;18.40;;;;;;;2.32;71.78;99495.58;131099;1248;108361;-77
2023/03/12 08:47:32;;;;;;;190.50;44.10;;;;;;;2.37;71.55;99494.11;131107;1252;108631;-76
2023/03/12 08:50:37;;;;;;;80.30;22.10;;;;;;;2.48;71.72;99502.94;131071;1250;108686;-77
2023/03/12 08:53:43;;;;;;;32.50;9.50;;;;;;;2.53;68.62;99502.52;131188;1247;107727;-77
2023/03/12 08:56:53;;;;;;;153.40;39.60;;;;;;;2.46;68.95;99503.44;131085;1248;108222;-76
2023/03/12 08:59:59;;;;;;;28.20;8.50;;;;;;;2.51;68.62;99504.25;131506;1252;107069;-77
2023/03/12 09:03:05;;;;;;;14.20;4.90;;;;;;;2.54;67.63;99508.83;131102;1251;108504;-77
2023/03/12 09:06:15;;;;;;;119.50;34.90;;;;;;;2.55;69.20;99514.14;131159;1253;108576;-76
2023/03/12 09:09:21;;;;;;;51.60;14.10;;;;;;;2.72;68.82;99508.43;131092;1248;108749;-76
2023/03/12 09:12:26;;;;;;;167.50;55.20;;;;;;;2.96;69.26;99506.16;131119;1252;108674;-76
2023/03/12 09:15:33;;;;;;;135.00;47.70;;;;;;;3.11;67.95;99506.02;131081;1248;108467;-76
2023/03/12 09:18:39;;;;;;;82.90;34.90;;;;;;;3.10;66.15;99512.10;131059;1252;108510;-77
2023/03/12 09:21:44;;;;;;;85.80;37.00;;;;;;;3.13;65.78;99514.08;131246;1247;106540;-76
2023/03/12 09:24:50;;;;;;;89.30;43.60;;;;;;;3.30;65.75;99511.02;131258;1252;108577;-76
2023/03/12 09:27:56;;;;;;;55.80;26.60;;;;;;;3.26;64.43;99521.67;131342;1250;108584;-76
2023/03/12 09:31:05;;;;;;;123.00;59.30;;;;;;;3.31;65.99;99518.10;131090;1248;107747;-75
2023/03/12 09:34:11;;;;;;;45.40;26.60;;;;;;;3.34;65.01;99522.32;131175;1252;107115;-75
2023/03/12 09:37:17;;;;;;;9.90;5.20;;;;;;;3.30;64.98;99531.06;131147;1247;107545;-78
2023/03/12 09:40:27;;;;;;;9.70;5.00;;;;;;;3.28;64.04;99530.34;131634;1249;108696;-75
2023/03/12 09:43:40;;;;;;;14.60;8.20;;;;;;;3.34;63.51;99528.78;131651;1247;108465;-76
2023/03/12 09:46:50;;;;;;;47.10;29.50;;;;;;;3.35;62.27;99535.05;131468;1251;107464;-75
2023/03/12 09:50:01;;;;;;;16.30;8.80;;;;;;;3.43;64.57;99536.48;131354;1251;107647;-75
2023/03/12 09:53:15;;;;;;;7.60;3.40;;;;;;;3.48;64.86;99546.24;131331;1247;107448;-78
2023/03/12 09:56:23;;;;;;;4.90;2.70;;;;;;;3.31;58.30;99551.70;131349;1252;108638;-77
2023/03/12 09:59:28;;;;;;;9.80;5.70;;;;;;;3.24;60.43;99551.73;131343;1251;107525;-77
2023/03/12 10:03:04;;;;;;;12.50;7.40;;;;;;;3.33;61.57;99554.16;131088;1248;108663;-75
2023/03/12 10:06:16;;;;;;;5.40;3.70;;;;;;;3.32;61.96;99554.40;131135;1248;107511;-77
2023/03/12 10:09:47;;;;;;;10.50;4.70;;;;;;;3.30;61.83;99567.23;131140;1250;108557;-77
2023/03/12 10:13:10;;;;;;;5.20;2.10;;;;;;;3.34;61.07;99570.41;131085;1252;106719;-76
2023/03/12 10:16:29;;;;;;;6.70;3.60;;;;;;;3.18;59.20;99560.13;131284;1254;108682;-77
2023/03/12 10:20:06;;;;;;;5.20;2.20;;;;;;;3.15;59.55;99561.73;131221;1252;107504;-74
2023/03/12 10:23:22;;;;;;;5.50;2.50;;;;;;;3.25;62.08;99565.88;131257;1252;107444;-72
2023/03/12 10:26:34;;;;;;;6.50;2.50;;;;;;;3.26;58.40;99583.90;131295;1250;106356;-76
2023/03/12 10:29:43;;;;;;;7.50;3.60;;;;;;;3.26;61.98;99575.63;131308;1248;108260;-74
2023/03/12 10:32:52;;;;;;;7.20;2.70;;;;;;;3.47;62.43;99578.01;131392;1252;108601;-72
2023/03/12 10:35:58;;;;;;;5.90;2.80;;;;;;;3.55;59.96;99589.86;131265;1252;108696;-76
2023/03/12 10:39:11;;;;;;;7.40;3.90;;;;;;;3.49;59.47;99584.34;131124;1252;106649;-76
2023/03/12 10:42:19;;;;;;;11.10;3.70;;;;;;;3.65;61.82;99581.68;131342;1252;107054;-76
2023/03/12 10:45:36;;;;;;;7.30;3.10;;;;;;;3.87;61.48;99575.29;131117;1250;108729;-75
2023/03/12 10:48:42;;;;;;;41.20;16.10;;;;;;;4.01;60.48;99586.15;131100;1252;107512;-74
2023/03/12 10:51:57;;;;;;;12.40;5.30;;;;;;;3.90;58.28;99582.59;131374;1253;107554;-74
2023/03/12 10:55:13;;;;;;;8.90;4.00;;;;;;;3.75;59.12;99587.02;131407;1252;107889;-74
2023/03/12 10:58:25;;;;;;;33.80;12.20;;;;;;;3.77;59.71;99580.81;131219;1253;106577;-73
2023/03/12 11:01:37;;;;;;;41.10;14.90;;;;;;;4.01;59.65;99589.29;131439;1250;108260;-74
2023/03/12 11:04:50;;;;;;;23.60;8.40;;;;;;;4.19;60.74;99585.64;131370;1252;108482;-75
2023/03/12 11:07:56;;;;;;;135.30;43.10;;;;;;;4.32;58.30;99588.92;131218;1247;108714;-74
2023/03/12 11:11:04;;;;;;;47.90;17.20;;;;;;;4.47;58.32;99589.80;131204;1250;107535;-73
2023/03/12 11:14:18;;;;;;;57.50;19.00;;;;;;;4.35;55.31;99596.44;131116;1252;106838;-75
2023/03/12 11:17:25;;;;;;;289.50;97.70;;;;;;;4.27;58.34;99592.52;131104;1248;107541;-75
2023/03/12 11:20:31;;;;;;;81.60;22.70;;;;;;;4.42;55.54;99602.39;131534;1248;108446;-74
2023/03/12 11:23:39;;;;;;;375.50;99.00;;;;;;;4.34;57.71;99595.10;131139;1248;107564;-76
2023/03/12 11:26:51;;;;;;;86.30;28.50;;;;;;;4.47;57.58;99599.29;131441;1250;107671;-74
2023/03/12 11:29:58;;;;;;;308.20;102.30;;;;;;;4.63;57.48;99604.67;131449;1250;107216;-74
2023/03/12 11:33:03;;;;;;;10.90;4.50;;;;;;;4.68;57.02;99604.00;131325;1249;107596;-74
2023/03/12 11:36:23;;;;;;;55.20;28.80;;;;;;;4.59;55.51;99598.48;131134;1248;107524;-75
2023/03/12 11:39:39;;;;;;;15.60;8.40;;;;;;;4.57;54.85;99608.15;131057;1248;108707;-75
2023/03/12 11:42:57;;;;;;;14.00;7.30;;;;;;;4.50;54.17;99605.60;131168;1248;107539;-74
2023/03/12 11:46:27;;;;;;;12.20;5.80;;;;;;;4.56;55.85;99601.40;131218;1271;107482;-74
2023/03/12 11:49:48;;;;;;;163.10;50.40;;;;;;;4.66;56.65;99603.15;131147;1248;107473;-72
2023/03/12 11:53:10;;;;;;;402.50;113.80;;;;;;;4.61;54.99;99606.38;131187;1252;108632;-76
2023/03/12 11:56:30;;;;;;;18.30;6.00;;;;;;;4.33;53.10;99608.19;131359;1247;106663;-75
2023/03/12 12:00:03;;;;;;;42.30;12.50;;;;;;;4.06;54.84;99613.48;131342;1252;107170;-74
2023/03/12 12:03:44;;;;;;;101.40;30.60;;;;;;;4.07;55.72;99612.70;131326;1267;107504;-75
2023/03/12 12:07:00;;;;;;;374.60;153.20;;;;;;;4.00;54.88;99615.56;131181;1250;107068;-74
2023/03/12 12:10:17;;;;;;;71.60;27.50;;;;;;;4.10;56.13;99617.88;131093;1250;106444;-76
2023/03/12 12:13:32;;;;;;;187.70;65.60;;;;;;;4.27;55.98;99615.73;131878;1252;106495;-74
2023/03/12 12:16:51;;;;;;;21.30;8.00;;;;;;;4.51;57.23;99610.39;131531;1247;108001;-76
2023/03/12 12:20:14;;;;;;;69.20;39.70;;;;;;;4.59;57.01;99616.08;131417;1251;107094;-75
2023/03/12 12:23:30;;;;;;;8.70;5.00;;;;;;;4.70;54.60;99620.92;131407;1253;107636;-76
2023/03/12 12:26:44;;;;;;;26.60;19.40;;;;;;;4.83;56.42;99618.31;131617;1247;107518;-76
2023/03/12 12:30:10;;;;;;;10.70;5.50;;;;;;;4.97;55.59;99612.80;131144;1252;107563;-75
2023/03/12 12:33:28;;;;;;;7.60;3.80;;;;;;;5.00;54.49;99615.08;131182;1252;107513;-74
2023/03/12 12:36:35;;;;;;;3.40;2.50;;;;;;;4.80;53.82;99624.16;131101;1252;107506;-75
2023/03/12 12:39:47;;;;;;;3.80;2.40;;;;;;;4.67;53.09;99628.61;131128;1250;108817;-75
2023/03/12 12:43:02;;;;;;;3.90;2.70;;;;;;;4.56;53.36;99630.98;131164;1250;107527;-73
2023/03/12 12:46:13;;;;;;;7.50;3.30;;;;;;;4.48;55.41;99628.67;131102;1248;107529;-74
2023/03/12 12:49:24;;;;;;;36.80;13.00;;;;;;;4.53;55.02;99632.64;131107;1252;107497;-74
2023/03/12 12:52:30;;;;;;;13.10;5.80;;;;;;;4.42;54.28;99634.83;131349;1252;107071;-74
2023/03/12 12:55:42;;;;;;;12.00;5.30;;;;;;;4.35;53.54;99646.45;131252;1250;107526;-72
2023/03/12 12:59:02;;;;;;;69.30;21.50;;;;;;;4.16;53.40;99653.34;131501;1252;107532;-73
2023/03/12 13:02:18;;;;;;;443.30;151.10;;;;;;;4.02;55.20;99655.16;131355;1247;105727;-75
2023/03/12 13:05:28;;;;;;;10.90;4.50;;;;;;;4.09;55.14;99650.55;131260;1247;106938;-76
2023/03/12 13:09:13;;;;;;;117.80;30.30;;;;;;;4.20;54.44;99645.94;131213;1247;105565;-73
2023/03/12 13:12:29;;;;;;;258.60;71.20;;;;;;;4.42;56.19;99646.54;131536;1250;108521;-72
2023/03/12 13:15:42;;;;;;;57.00;17.40;;;;;;;4.58;54.71;99647.52;131376;1247;107541;-74
2023/03/12 13:18:59;;;;;;;67.00;19.10;;;;;;;4.65;55.56;99648.38;131410;1247;107424;-74
2023/03/12 13:22:16;;;;;;;362.80;105.60;;;;;;;4.70;55.66;99641.36;131443;1247;107339;-74
2023/03/12 13:25:48;;;;;;;335.80;125.90;;;;;;;4.83;55.18;99643.88;131450;1252;106928;-75
2023/03/12 13:29:13;;;;;;;341.80;96.00;;;;;;;4.92;55.13;99638.34;131464;1247;107454;-78
2023/03/12 13:33:00;;;;;;;92.40;27.90;;;;;;;4.89;53.00;99646.61;131486;1248;106858;-75
2023/03/12 13:36:22;;;;;;;13.90;5.00;;;;;;;4.89;54.35;99647.21;131146;1247;107461;-73
2023/03/12 13:39:33;;;;;;;16.10;5.40;;;;;;;4.91;53.99;99650.85;131182;1252;107616;-74
2023/03/12 13:42:42;;;;;;;94.50;26.40;;;;;;;4.90;53.85;99651.85;131474;1247;106384;-74
2023/03/12 13:46:01;;;;;;;7.60;3.40;;;;;;;4.90;52.45;99658.77;131581;1252;106637;-74
2023/03/12 13:49:14;;;;;;;53.00;14.50;;;;;;;4.86;54.16;99654.31;131514;1252;107549;-74
2023/03/12 13:52:24;;;;;;;30.00;8.40;;;;;;;4.91;51.88;99656.84;131301;1250;107523;-75
2023/03/12 13:55:32;;;;;;;324.10;83.30;;;;;;;4.77;52.41;99659.52;131096;1252;105496;-74
2023/03/12 13:58:48;;;;;;;105.60;27.30;;;;;;;4.76;53.73;99663.35;131231;1252;107501;-74
2023/03/12 14:01:57;;;;;;;208.30;51.70;;;;;;;4.81;54.74;99657.04;131127;1251;107517;-78
2023/03/12 14:05:08;;;;;;;400.20;138.40;;;;;;;4.94;54.71;99652.38;131132;1248;108113;-75
2023/03/12 14:08:25;;;;;;;244.80;74.00;;;;;;;5.00;53.55;99650.66;131541;1247;107633;-75
2023/03/12 14:11:41;;;;;;;161.30;53.50;;;;;;;4.94;53.85;99662.06;131571;1247;107565;-74
2023/03/12 14:15:15;;;;;;;105.70;41.10;;;;;;;4.83;52.56;99666.90;131430;1252;200089;-73
2023/03/12 14:18:24;;;;;;;11.60;4.70;;;;;;;4.69;51.92;99671.60;131604;1252;108643;-78
2023/03/12 14:21:34;;;;;;;7.40;4.30;;;;;;;4.64;53.26;99670.48;131565;1247;108647;-78
2023/03/12 14:24:47;;;;;;;7.20;3.30;;;;;;;4.53;52.57;99678.05;131486;1247;108637;-73
2023/03/12 14:27:53;;;;;;;6.90;3.30;;;;;;;4.43;53.17;99679.83;131531;1252;107616;-75